Georgi Petrov

Chief Scout - CSKA Sofia
20 Nov 2027
Saturday
Process

Personality

Adaptability (11) Ambition (7) Controversy (11) Loyalty (2) Pressure (15) Professionalism (13) Sportsmanship (10) Temperament (20)

Profile

Coaching Style Democratic
License Continental Pro
Determination 5
Man Management 12
Motivating 12
Discipline 4
Job Satisfaction
100%
Fatigue
0%
Role Chief Scout
Wage 55.1K p/w
Contract 14.03.2029

Performance

Behaviour Good
Training Effectiveness
41%
Player Development
30%
Injury Prevention
55%
Tactical Implementation
50%

Recent Events

Attended a recruitment meeting 7d ago
Attended a recruitment meeting 7d ago
Attended a recruitment meeting 14d ago
Attended a recruitment meeting 14d ago
Attended a recruitment meeting 21d ago
Attended a recruitment meeting 21d ago
Attended a recruitment meeting 28d ago
Attended a recruitment meeting 28d ago

Currently Monitoring

130
Player Club Status Ability Confidence Watched Last Observed Latest Vote
Borna Knezović Casarano Active 99 / 114 40% 1 07.06.2027 -
Daniel Gnahoua ES Setif Active 111 / 105 40% 1 07.06.2027 -
Samuel Kalu Botev Plovdiv Lost 118 / 112 65% 1 02.06.2027 -
Ryan Leijten Lokomotiv Plovdiv Lost 111 / 102 65% 1 01.06.2027 -
Gonçalo Oliveira Benfica Active 116 / 114 40% 4 31.05.2027 -
Simone Kosijer Triestina Active 101 / 113 40% 2 31.05.2027 -
Maeson King Blackpool Active 115 / 123 40% 1 31.05.2027 -
Lucas Jetten Cambuur Active 107 / 130 40% 3 29.05.2027 -
Mattia Puzone Siracusa Active 98 / 114 40% 1 29.05.2027 -
Thiago Silvero Sevilla Active 125 / 124 40% 1 28.05.2027 -
Samuel Lucero Defensa y Justicia Active 108 / 131 40% 2 27.05.2027 -
T-Jay Parfitt Cardiff City Active 89 / 100 40% 2 27.05.2027 -
Lucas Høgsberg Paris Saint-Germain Active 132 / 141 40% 2 27.05.2027 -
Daniel Kelly Derby County Active 108 / 112 40% 3 24.05.2027 -
Dylan Lawlor Cardiff City Active 108 / 126 40% 3 24.05.2027 -
Karim Coulibaly RC Strasbourg Active 123 / 138 40% 2 24.05.2027 -
Mohammed Wakaso Hasaacas Active 88 / 93 40% 2 23.05.2027 -
Leandro Martins Benfica Active 90 / 97 40% 3 23.05.2027 -
Mandla Mokotjo SuperSport United Active 86 / 107 40% 1 23.05.2027 -
Pietro Reggiori Pro Patria Active 89 / 98 40% 1 22.05.2027 -
Ronan Kpakio Brentford Active 110 / 121 40% 1 22.05.2027 -
Jonathan De Irastorza Levante Active 114 / 115 40% 3 20.05.2027 -
Mauricio Amaro Atlanta United FC Active 126 / 139 40% 1 20.05.2027 -
Edmund Inusah WAFA Active 81 / 87 40% 4 18.05.2027 -
Daniel Vernattus Metalist Active 97 / 95 40% 1 18.05.2027 -
Jaydee Canvot Liverpool Active 127 / 128 40% 1 17.05.2027 -
Lucas Mbamba Westerlo Active 81 / 89 40% 1 17.05.2027 -
Christos Mouzakitis Hull City Active 126 / 135 40% 2 15.05.2027 -
Abraham Paintsil Hasaacas Active 96 / 92 40% 2 10.05.2027 -
Rhys Chadwick Gillingham Active 98 / 104 40% 1 10.05.2027 -
Bakary Haïdara Hearts of Oak Active 101 / 119 40% 2 07.05.2027 -
Kubrat Onasci Septemvri Active 104 / 105 40% 5 06.05.2027 -
Jofre Torrents Ajax Active 123 / 120 40% 4 06.05.2027 -
Gladson Sulemana Liberty Professionals Active 90 / 104 40% 1 05.05.2027 -
Facundo Di Biasi Getafe Active 116 / 116 40% 1 02.05.2027 -
Moncef Zekri Sporting CP Active 94 / 107 40% 4 30.04.2027 -
David Ozoh Derby County Active 122 / 118 40% 1 30.04.2027 -
Leonardo Mendicino Bari Active 108 / 126 40% 1 28.04.2027 -
Andrey Ivlev Nizhniy Novgorod Active 100 / 114 40% 1 26.04.2027 -
Joel McGregor Swindon Town Active 87 / 104 40% 3 25.04.2027 -
Caleb Yirenkyi Coventry City Active 128 / 140 40% 1 25.04.2027 -
Tommaso Cecotti Carpi Active 95 / 107 40% 3 19.04.2027 -
Martim Cunha Porto Active 101 / 97 40% 3 17.04.2027 -
Juan David Arizala Udinese Active 117 / 118 40% 1 16.04.2027 -
Konta Ismaily Active 86 / 82 40% 1 13.04.2027 -
Riquelme Thompson-Jones Shrewsbury Town Active 105 / 122 40% 2 11.04.2027 -
Sascha Britschgi Catanzaro Active 118 / 128 40% 2 10.04.2027 -
Surprise Manthosi Polokwane City Active 100 / 106 40% 1 09.04.2027 -
Diego Rossi Forli Active 87 / 85 40% 1 07.04.2027 -
Pablo Lúcio Farense Active 96 / 116 40% 1 06.04.2027 -
Dayann Methalie Everton Active 131 / 138 40% 1 14.01.2027 Needs More Info
Simphiwe Selepe Orlando Pirates Active 97 / 132 40% 1 14.01.2027 -
Tiago Freitas Benfica Active 108 / 109 40% 1 31.12.2026 -
Andrey Domotsev Mashuk Active 83 / 88 40% 1 30.12.2026 -
Tomasz Walczak MFK Michalovce Active 101 / 97 40% 2 29.12.2026 -
Alpha Touré FC Metz Active 120 / 129 40% 1 28.12.2026 -
Ilja Ivanov Rubin Active 70 / 85 40% 1 28.12.2026 -
Gia Nadareishvili AS Trencin Active 101 / 113 40% 1 28.12.2026 -
João Simões Sporting CP Active 138 / 133 40% 2 27.12.2026 -
Timotej Hranica MSK Zilina Active 103 / 109 40% 1 27.12.2026 -
Sergey Gribov Dinamo Bryansk Active 92 / 76 40% 2 25.12.2026 -
Ognjen Bondžulić Mladost Lucani Active 100 / 94 40% 3 24.12.2026 -
Yannik Wagner Heidenheim Active 91 / 111 40% 1 23.12.2026 -
Marko Brkić NK Krka Active 92 / 83 40% 1 23.12.2026 -
Jules Kalczynski Nimes Active 90 / 87 40% 1 22.12.2026 -
Kyano Kwint De Graafschap Active 90 / 89 40% 1 22.12.2026 -
Emin Madatov Ravan Active 97 / 89 40% 2 21.12.2026 -
Kirill Cheburakov Rostov Active 70 / 71 40% 2 21.12.2026 -
Sean Fusire Sheffield Wednesday Active 98 / 97 40% 1 19.12.2026 -
Ismaël Baouf Cambuur Active 107 / 122 40% 1 19.12.2026 -
Xavier Biscayzacú Sporting CP Active 132 / 127 40% 1 15.12.2026 -
Rodrigo Ribeiro Werder Bremen Active 129 / 130 40% 1 15.12.2026 -
Oumar Camara Vitoria Guimaraes Active 121 / 126 40% 5 14.12.2026 -
Felipe Serrés Wanderers Active 95 / 112 40% 1 13.12.2026 -
Braiden Graham Everton Active 92 / 94 40% 1 13.12.2026 -
Dramane Kamagaté USM Alger Active 98 / 92 40% 1 10.12.2026 -
Matheus Alves Zenit Active 121 / 121 40% 1 10.12.2026 -
Kaloyan Strinski CSKA 1948 Active 87 / 77 40% 1 09.12.2026 -
Philip Onyedika MFK Skalica Active 84 / 102 40% 2 08.12.2026 -
Jeremiah Okine-Peters Textilschik Active 82 / 76 40% 2 07.12.2026 -
Norbert Barczak Korona Active 94 / 91 40% 1 07.12.2026 -
Nikolay Zlatev Cherno More Active 97 / 113 40% 9 05.12.2026 -
Ryan Ogam Wolfsberger AC Active 88 / 106 40% 1 05.12.2026 -
Nico Valentine Wycombe Wanderers Active 77 / 84 40% 1 04.12.2026 -
Stanislav Lapinskiy Nizhniy Novgorod Active 87 / 75 40% 1 02.12.2026 -
Toni Tamarit Alverca Active 118 / 129 40% 1 27.11.2026 -
Roberto Iliev Slavia Sofia Active 86 / 113 40% 4 26.11.2026 -
Miloš Jovičić Zabbar St. Patrick Active 91 / 104 40% 3 26.11.2026 -
Prince Owusu AZAL Active 74 / 112 40% 1 23.11.2026 -
Paris Brunner Monaco Active 108 / 125 40% 1 20.11.2026 -
Artur Kozyrev Alania Active 77 / 88 40% 1 19.11.2026 -
Risilanu Ismail El-Kanemi Warriors Active 91 / 90 40% 1 18.11.2026 -
Levan Khozrevanidze Dinamo Batumi Active 93 / 71 40% 1 15.11.2026 -
Hassan Beja AFC Leopards Active 68 / 74 40% 1 15.11.2026 -
Ryan Oné Sheffield United Active 114 / 107 40% 1 13.11.2026 -
Hílder Arboleda Union Magdalena Active 80 / 94 40% 1 12.11.2026 -
Néiser Villarreal Cruzeiro Active 98 / 100 40% 1 09.11.2026 -
Mathis Jangeal Famalicao Active 103 / 110 40% 1 27.10.2026 -
Alan Salas San Lorenzo Active 82 / 97 40% 1 26.10.2026 -
Don-Pedro Samuel Bayelsa United Active 87 / 85 40% 2 22.10.2026 -
Santiago Uriza Vélez Active 82 / 94 40% 1 19.10.2026 -
Daniel Cummings West Ham United Active 94 / 84 40% 1 18.10.2026 -
Timofey Simanenka Gomel Active 98 / 108 40% 1 11.10.2026 -
Tosin Olawale El-Kanemi Warriors Active 88 / 80 40% 1 10.10.2026 -
Ignacio Campo Huracán Active 109 / 117 40% 1 07.10.2026 -
Víctor Reyes Deportes Tolima Active 82 / 88 40% 1 06.10.2026 -
Luka Andrade Montevideo City Torque Active 93 / 117 40% 1 02.10.2026 -
Lautaro Cipollone Defensores Unidos Active 76 / 90 40% 1 01.10.2026 -
Alexis Devesa Aldosivi Active 86 / 83 40% 1 30.09.2026 -
Tomás Salteño Rosario Central Active 83 / 102 40% 1 29.09.2026 -
Laureano Paez Colón Active 100 / 88 40% 1 28.09.2026 -
Chimezie Williams Botev Plovdiv Active 85 / 98 40% 1 27.09.2026 -
Thiago Ponce Rosario Central Active 93 / 93 40% 1 25.09.2026 -
Bautista La Licata Belgrano Active 97 / 97 40% 1 24.09.2026 -
Leonel Flores Boca Juniors Active 103 / 115 40% 2 23.09.2026 -
Chizzy Ezenwata Chelsea Active 91 / 102 40% 1 22.09.2026 -
Jonathan Cook Leicester City Active 86 / 90 40% 1 21.09.2026 -
Alexei Dominguez Pachuca Active 108 / 104 40% 1 20.09.2026 -
Aaron Centurión Vélez Active 93 / 101 40% 1 20.09.2026 -
Lautaro Díaz San Martín Active 84 / 98 40% 2 18.09.2026 -
Ceadach O'Neill Arsenal Active 81 / 96 40% 1 16.09.2026 -
Igor Tyjon Blackburn Rovers Active 102 / 101 40% 1 14.09.2026 -
Kaique Kenji Cruzeiro Active 108 / 126 40% 1 14.09.2026 -
Ignacio Gonella Central Espanol Active 80 / 80 40% 1 11.09.2026 -
Santino Dudar Ferro Carril Oeste Active 77 / 95 40% 1 10.09.2026 -
Joseph Abah Remo Stars Active 90 / 101 40% 1 09.09.2026 -
Louis Zecevic-John Arsenal Active 89 / 103 40% 1 08.09.2026 -
Lucciano Reinoso Caracas Active 93 / 92 40% 1 07.09.2026 -
Filip Gigov Ludogorets Active 81 / 91 40% 1 06.09.2026 -
Vakhtang Salia Newcastle United Active 93 / 101 40% 1 03.09.2026 -